Time;durP1;ratioP1;P1;durP2;ratioP2;P2;SDS_P1;SDS_P2;PMS_P1;PMS_P2;Temp;Humidity;BMP_temperature;BMP_pressure;BME280_temperature;BME280_humidity;BME280_pressure;Samples;Min_cycle;Max_cycle;Signal;HPM_P1;HPM_P2
2021/12/03 00:02:09;;;;;;;15.23;5.57;;;;;;;;;;4942249;28;107486;-62
2021/12/03 00:04:36;;;;;;;17.50;5.90;;;;;;;;;;4946600;28;106734;-61
2021/12/03 00:07:02;;;;;;;11.18;4.95;;;;;;;;;;4944290;28;106010;-63
2021/12/03 00:09:34;;;;;;;15.23;5.47;;;;;;;;;;4928885;28;107595;-62
2021/12/03 00:12:01;;;;;;;10.05;4.93;;;;;;;;;;4946437;28;106200;-62
2021/12/03 00:14:27;;;;;;;9.20;4.95;;;;;;;;;;4943981;28;106544;-62
2021/12/03 00:16:53;;;;;;;9.75;4.72;;;;;;;;;;4928413;28;107439;-62
2021/12/03 00:19:20;;;;;;;8.20;4.90;;;;;;;;;;4940282;28;106414;-62
2021/12/03 00:21:46;;;;;;;11.43;5.07;;;;;;;;;;4944258;28;107420;-61
2021/12/03 00:24:12;;;;;;;11.80;5.22;;;;;;;;;;4941702;28;106503;-61
2021/12/03 00:26:39;;;;;;;11.02;5.50;;;;;;;;;;4941408;28;107390;-62
2021/12/03 00:29:05;;;;;;;12.18;5.88;;;;;;;;;;4917278;28;107354;-62
2021/12/03 00:31:32;;;;;;;11.90;5.43;;;;;;;;;;4948777;28;106062;-61
2021/12/03 00:33:58;;;;;;;12.50;5.20;;;;;;;;;;4946660;28;107671;-61
2021/12/03 00:36:26;;;;;;;11.80;6.32;;;;;;;;;;4943939;28;106279;-61
2021/12/03 00:38:55;;;;;;;17.95;6.25;;;;;;;;;;4938604;28;106950;-61
2021/12/03 00:41:22;;;;;;;14.10;5.95;;;;;;;;;;4950615;28;108175;-61
2021/12/03 00:43:52;;;;;;;14.88;6.25;;;;;;;;;;4942782;28;105800;-60
2021/12/03 00:46:19;;;;;;;9.75;5.97;;;;;;;;;;4946551;28;106341;-61
2021/12/03 00:48:47;;;;;;;16.23;6.47;;;;;;;;;;4945731;28;106431;-61
2021/12/03 00:51:14;;;;;;;12.73;5.72;;;;;;;;;;4937915;28;106568;-60
2021/12/03 00:53:41;;;;;;;12.85;5.85;;;;;;;;;;4941654;28;107163;-60
2021/12/03 00:56:08;;;;;;;12.43;5.88;;;;;;;;;;4943285;28;107892;-62
2021/12/03 00:58:35;;;;;;;11.18;5.88;;;;;;;;;;4940667;28;106426;-60
2021/12/03 01:01:02;;;;;;;16.45;6.65;;;;;;;;;;4947500;28;106055;-60
2021/12/03 01:03:29;;;;;;;16.20;6.43;;;;;;;;;;4948295;28;106277;-60
2021/12/03 01:05:55;;;;;;;18.85;7.10;;;;;;;;;;4938198;28;107999;-61
2021/12/03 01:08:22;;;;;;;15.27;7.15;;;;;;;;;;4945744;28;107387;-61
2021/12/03 01:10:49;;;;;;;18.35;7.68;;;;;;;;;;4941093;28;107337;-60
2021/12/03 01:13:16;;;;;;;21.83;8.07;;;;;;;;;;4946697;28;106176;-60
2021/12/03 01:15:43;;;;;;;19.90;8.30;;;;;;;;;;4946113;28;107210;-60
2021/12/03 01:18:10;;;;;;;20.58;7.25;;;;;;;;;;4942467;28;105894;-60
2021/12/03 01:20:38;;;;;;;17.23;8.13;;;;;;;;;;4941086;28;106363;-60
2021/12/03 01:23:05;;;;;;;20.80;8.20;;;;;;;;;;4938821;28;107378;-60
2021/12/03 01:25:32;;;;;;;23.20;8.60;;;;;;;;;;4943509;28;106314;-60
2021/12/03 01:28:00;;;;;;;23.23;9.40;;;;;;;;;;4943924;28;106656;-60
2021/12/03 01:30:27;;;;;;;18.10;8.32;;;;;;;;;;4944908;28;107576;-61
2021/12/03 01:32:54;;;;;;;22.13;9.02;;;;;;;;;;4944591;28;106213;-63
2021/12/03 01:35:20;;;;;;;21.58;8.52;;;;;;;;;;4943585;28;107780;-60
2021/12/03 01:37:47;;;;;;;19.70;9.32;;;;;;;;;;4946490;28;107104;-60
2021/12/03 01:40:16;;;;;;;21.35;9.63;;;;;;;;;;4945598;28;105906;-60
2021/12/03 01:42:44;;;;;;;20.88;9.27;;;;;;;;;;4945868;28;106594;-60
2021/12/03 01:45:13;;;;;;;18.50;8.48;;;;;;;;;;4925764;28;106117;-62
2021/12/03 01:47:41;;;;;;;22.52;9.40;;;;;;;;;;4948960;28;106273;-61
2021/12/03 01:50:07;;;;;;;20.85;9.18;;;;;;;;;;4927240;28;106317;-63
2021/12/03 01:52:33;;;;;;;22.80;9.55;;;;;;;;;;4943224;28;106910;-60
2021/12/03 01:55:01;;;;;;;24.38;8.98;;;;;;;;;;4933668;28;106388;-60
2021/12/03 01:57:28;;;;;;;21.13;9.07;;;;;;;;;;4946321;28;107445;-60
2021/12/03 01:59:54;;;;;;;24.23;8.65;;;;;;;;;;4942142;28;105978;-60
2021/12/03 02:02:21;;;;;;;26.65;8.93;;;;;;;;;;4923522;28;109748;-60
2021/12/03 02:04:47;;;;;;;18.42;8.25;;;;;;;;;;4945253;28;106201;-59
2021/12/03 02:07:14;;;;;;;19.27;8.48;;;;;;;;;;4940921;28;107413;-60
2021/12/03 02:09:40;;;;;;;16.65;7.93;;;;;;;;;;4946410;28;107375;-60
2021/12/03 02:12:07;;;;;;;17.67;7.65;;;;;;;;;;4941500;28;106245;-66
2021/12/03 02:14:33;;;;;;;18.70;8.45;;;;;;;;;;4924243;28;109726;-61
2021/12/03 02:17:00;;;;;;;16.85;7.68;;;;;;;;;;4941996;28;106193;-61
2021/12/03 02:19:29;;;;;;;17.50;7.75;;;;;;;;;;4943967;28;108292;-61
2021/12/03 02:21:55;;;;;;;18.87;8.33;;;;;;;;;;4945168;28;106322;-62
2021/12/03 02:24:22;;;;;;;17.95;7.93;;;;;;;;;;4942962;28;106073;-61
2021/12/03 02:26:49;;;;;;;14.88;7.38;;;;;;;;;;4946019;28;106795;-62
2021/12/03 02:29:16;;;;;;;18.73;6.70;;;;;;;;;;4944126;28;106597;-61
2021/12/03 02:31:42;;;;;;;15.77;7.82;;;;;;;;;;4942825;28;107464;-61
2021/12/03 02:34:09;;;;;;;25.75;8.25;;;;;;;;;;4942800;28;107321;-62
2021/12/03 02:36:35;;;;;;;21.63;7.47;;;;;;;;;;4942984;28;106063;-61
2021/12/03 02:39:03;;;;;;;17.00;7.35;;;;;;;;;;4945085;28;106118;-61
2021/12/03 02:41:29;;;;;;;16.38;7.10;;;;;;;;;;4937117;28;107770;-61
2021/12/03 02:43:55;;;;;;;17.90;7.63;;;;;;;;;;4944406;28;106342;-61
2021/12/03 02:46:22;;;;;;;18.02;7.63;;;;;;;;;;4945470;28;107286;-61
2021/12/03 02:48:48;;;;;;;16.80;6.85;;;;;;;;;;4946309;28;107390;-62
2021/12/03 02:51:15;;;;;;;18.27;7.15;;;;;;;;;;4948021;28;105637;-61
2021/12/03 02:53:41;;;;;;;17.38;7.15;;;;;;;;;;4945906;28;106337;-61
2021/12/03 02:56:08;;;;;;;16.88;7.03;;;;;;;;;;4943321;28;106331;-62
2021/12/03 02:58:35;;;;;;;17.45;7.20;;;;;;;;;;4937342;28;106541;-61
2021/12/03 03:01:02;;;;;;;17.50;7.45;;;;;;;;;;4941304;28;107236;-61
2021/12/03 03:03:29;;;;;;;17.58;6.95;;;;;;;;;;4943527;28;106158;-61
2021/12/03 03:05:57;;;;;;;17.85;7.13;;;;;;;;;;4942681;28;106431;-61
2021/12/03 03:08:24;;;;;;;21.23;7.57;;;;;;;;;;4942170;28;106639;-63
2021/12/03 03:10:52;;;;;;;15.85;7.07;;;;;;;;;;4931977;28;105675;-60
2021/12/03 03:13:18;;;;;;;17.20;6.97;;;;;;;;;;4945517;28;107314;-62
2021/12/03 03:15:45;;;;;;;13.15;6.70;;;;;;;;;;4940236;28;106311;-60
2021/12/03 03:18:13;;;;;;;19.60;8.07;;;;;;;;;;4941793;28;106795;-60
2021/12/03 03:20:40;;;;;;;14.90;7.32;;;;;;;;;;4943299;28;107693;-61
2021/12/03 03:23:07;;;;;;;25.17;7.75;;;;;;;;;;4947037;28;106155;-61
2021/12/03 03:25:33;;;;;;;21.25;7.72;;;;;;;;;;4948354;28;108694;-61
2021/12/03 03:28:00;;;;;;;16.23;7.38;;;;;;;;;;4944604;28;107742;-65
2021/12/03 03:30:26;;;;;;;22.52;8.57;;;;;;;;;;4944683;28;109573;-61
2021/12/03 03:32:53;;;;;;;17.98;8.38;;;;;;;;;;4948235;28;107369;-61
2021/12/03 03:35:19;;;;;;;20.33;8.40;;;;;;;;;;4945930;28;107888;-62
2021/12/03 03:37:46;;;;;;;20.58;9.10;;;;;;;;;;4948024;28;107254;-61
2021/12/03 03:40:12;;;;;;;20.55;9.48;;;;;;;;;;4943772;28;107051;-61
2021/12/03 03:42:39;;;;;;;20.88;9.77;;;;;;;;;;4948878;28;108268;-61
2021/12/03 03:45:07;;;;;;;22.45;10.25;;;;;;;;;;4948082;28;106043;-61
2021/12/03 03:47:34;;;;;;;23.67;11.20;;;;;;;;;;4947925;28;107449;-61
2021/12/03 03:50:01;;;;;;;24.27;12.32;;;;;;;;;;4943463;28;106160;-61
2021/12/03 03:52:28;;;;;;;24.33;10.77;;;;;;;;;;4946854;28;106887;-62
2021/12/03 03:54:54;;;;;;;25.95;11.48;;;;;;;;;;4944463;28;106279;-62
2021/12/03 03:57:21;;;;;;;32.42;12.27;;;;;;;;;;4950376;28;106235;-62
2021/12/03 03:59:47;;;;;;;27.65;11.30;;;;;;;;;;4945512;28;107735;-61
2021/12/03 04:02:14;;;;;;;30.25;12.32;;;;;;;;;;4947614;28;106731;-61
2021/12/03 04:04:40;;;;;;;29.58;12.65;;;;;;;;;;4943884;28;106700;-61
2021/12/03 04:07:07;;;;;;;29.00;13.13;;;;;;;;;;4944368;28;107361;-62
2021/12/03 04:09:33;;;;;;;28.15;12.25;;;;;;;;;;4946496;28;106066;-61
2021/12/03 04:11:59;;;;;;;34.50;13.20;;;;;;;;;;4944406;28;107180;-61
2021/12/03 04:14:26;;;;;;;29.25;12.90;;;;;;;;;;4946258;28;106250;-62
2021/12/03 04:16:52;;;;;;;37.95;13.68;;;;;;;;;;4946110;28;106040;-61
2021/12/03 04:19:18;;;;;;;31.38;13.77;;;;;;;;;;4951346;28;105871;-64
2021/12/03 04:21:46;;;;;;;40.00;13.95;;;;;;;;;;4945527;28;106291;-61
2021/12/03 04:24:13;;;;;;;32.08;14.52;;;;;;;;;;4945938;28;107273;-61
2021/12/03 04:26:39;;;;;;;32.95;14.05;;;;;;;;;;4945081;28;107013;-61
2021/12/03 04:29:06;;;;;;;40.80;15.25;;;;;;;;;;4945845;28;106991;-61
2021/12/03 04:31:32;;;;;;;39.35;16.10;;;;;;;;;;4947130;28;106866;-61
2021/12/03 04:33:58;;;;;;;40.72;16.02;;;;;;;;;;4944542;28;109030;-61
2021/12/03 04:36:25;;;;;;;40.88;15.80;;;;;;;;;;4945040;28;106407;-61
2021/12/03 04:38:51;;;;;;;35.53;16.35;;;;;;;;;;4949000;28;107379;-61
2021/12/03 04:41:17;;;;;;;41.30;17.48;;;;;;;;;;4945964;28;106211;-61
2021/12/03 04:43:44;;;;;;;37.83;16.65;;;;;;;;;;4945001;28;107345;-61
2021/12/03 04:46:10;;;;;;;39.10;17.17;;;;;;;;;;4944000;28;107340;-61
2021/12/03 04:48:37;;;;;;;40.95;17.55;;;;;;;;;;4946801;28;106586;-62
2021/12/03 04:51:03;;;;;;;38.30;17.00;;;;;;;;;;4945204;28;107085;-61
2021/12/03 04:53:29;;;;;;;40.63;17.77;;;;;;;;;;4943109;28;107387;-61
2021/12/03 04:55:56;;;;;;;41.97;18.05;;;;;;;;;;4943116;28;106368;-61
2021/12/03 04:58:22;;;;;;;36.03;17.70;;;;;;;;;;4945812;28;107124;-61
2021/12/03 05:00:51;;;;;;;50.35;18.63;;;;;;;;;;4948902;28;107247;-61
2021/12/03 05:03:18;;;;;;;44.80;19.17;;;;;;;;;;4945906;28;107567;-61
2021/12/03 05:05:49;;;;;;;40.78;17.48;;;;;;;;;;4944898;28;106282;-61
2021/12/03 05:08:15;;;;;;;39.00;18.20;;;;;;;;;;4944483;28;107307;-61
2021/12/03 05:10:42;;;;;;;46.67;18.38;;;;;;;;;;4945203;28;107435;-61
2021/12/03 05:13:13;;;;;;;37.72;18.75;;;;;;;;;;4941819;28;107494;-61
2021/12/03 05:15:40;;;;;;;42.45;17.50;;;;;;;;;;4927792;28;106294;-61
2021/12/03 05:18:07;;;;;;;37.00;16.38;;;;;;;;;;4945131;28;105615;-61
2021/12/03 05:20:34;;;;;;;40.10;18.60;;;;;;;;;;4943427;28;108277;-61
2021/12/03 05:23:01;;;;;;;37.88;17.90;;;;;;;;;;4949226;28;107566;-60
2021/12/03 05:25:27;;;;;;;33.03;16.30;;;;;;;;;;4938087;28;106729;-60
2021/12/03 05:27:54;;;;;;;38.63;16.20;;;;;;;;;;4929709;28;106402;-61
2021/12/03 05:30:21;;;;;;;39.53;16.75;;;;;;;;;;4940314;28;106819;-61
2021/12/03 05:32:47;;;;;;;39.05;16.92;;;;;;;;;;4946556;28;106316;-60
2021/12/03 05:35:14;;;;;;;31.77;15.65;;;;;;;;;;4944827;28;105953;-61
2021/12/03 05:37:40;;;;;;;34.97;17.15;;;;;;;;;;4941612;28;107847;-60
2021/12/03 05:40:07;;;;;;;42.20;17.27;;;;;;;;;;4945198;28;106733;-64
2021/12/03 05:42:34;;;;;;;38.15;16.83;;;;;;;;;;4937462;28;106239;-61
2021/12/03 05:45:00;;;;;;;41.10;17.25;;;;;;;;;;4936767;28;106894;-61
2021/12/03 05:47:27;;;;;;;38.35;16.73;;;;;;;;;;4936831;28;107997;-61
2021/12/03 05:49:53;;;;;;;41.17;17.35;;;;;;;;;;4943597;28;108079;-64
2021/12/03 05:52:19;;;;;;;43.03;17.25;;;;;;;;;;4927916;28;110577;-60
2021/12/03 05:54:46;;;;;;;40.75;16.80;;;;;;;;;;4936366;28;105952;-60
2021/12/03 05:57:12;;;;;;;43.67;17.13;;;;;;;;;;4935166;28;106906;-60
2021/12/03 05:59:39;;;;;;;39.22;17.60;;;;;;;;;;4940302;28;106146;-60
2021/12/03 06:02:05;;;;;;;42.90;17.85;;;;;;;;;;4941488;28;105960;-61
2021/12/03 06:04:32;;;;;;;42.28;17.83;;;;;;;;;;4937650;28;109215;-62
2021/12/03 06:06:58;;;;;;;46.60;18.38;;;;;;;;;;4941747;28;107768;-61
2021/12/03 06:09:25;;;;;;;47.65;20.15;;;;;;;;;;4938694;28;106825;-61
2021/12/03 06:11:51;;;;;;;41.67;17.30;;;;;;;;;;4946235;28;108324;-61
2021/12/03 06:14:17;;;;;;;47.65;17.20;;;;;;;;;;4938387;28;106041;-61
2021/12/03 06:16:44;;;;;;;45.78;17.42;;;;;;;;;;4943520;28;106166;-61
2021/12/03 06:19:10;;;;;;;41.40;17.40;;;;;;;;;;4943320;28;107626;-61
2021/12/03 06:21:37;;;;;;;43.50;17.30;;;;;;;;;;4941140;28;106716;-60
2021/12/03 06:24:03;;;;;;;42.35;16.98;;;;;;;;;;4944491;28;106414;-60
2021/12/03 06:26:29;;;;;;;42.30;15.35;;;;;;;;;;4933846;28;107106;-60
2021/12/03 06:28:56;;;;;;;37.83;16.17;;;;;;;;;;4943381;28;107631;-61
2021/12/03 06:31:22;;;;;;;43.38;17.05;;;;;;;;;;4934968;28;107011;-61
2021/12/03 06:33:49;;;;;;;42.92;16.58;;;;;;;;;;4941508;28;106012;-61
2021/12/03 06:36:15;;;;;;;44.72;16.58;;;;;;;;;;4943580;28;106742;-60
2021/12/03 06:38:42;;;;;;;50.67;16.10;;;;;;;;;;4938896;28;107582;-61
2021/12/03 06:41:08;;;;;;;45.10;17.10;;;;;;;;;;4944345;28;106587;-61
2021/12/03 06:43:34;;;;;;;40.97;17.60;;;;;;;;;;4936971;28;106494;-61
2021/12/03 06:46:01;;;;;;;50.30;17.35;;;;;;;;;;4937733;28;107794;-61
2021/12/03 06:48:27;;;;;;;46.22;16.80;;;;;;;;;;4947479;28;107816;-61
2021/12/03 06:50:54;;;;;;;48.88;17.58;;;;;;;;;;4935879;28;106364;-62
2021/12/03 06:53:23;;;;;;;50.45;16.80;;;;;;;;;;4945549;28;106393;-61
2021/12/03 06:55:54;;;;;;;46.45;17.35;;;;;;;;;;4932242;28;107303;-61
2021/12/03 06:58:21;;;;;;;43.55;15.27;;;;;;;;;;4942506;28;107759;-61
2021/12/03 07:00:49;;;;;;;37.70;16.23;;;;;;;;;;4942950;28;106119;-61
2021/12/03 07:03:15;;;;;;;53.67;16.30;;;;;;;;;;4938945;28;107678;-61
2021/12/03 07:05:42;;;;;;;53.00;16.70;;;;;;;;;;4945175;28;106413;-61
2021/12/03 07:08:09;;;;;;;50.90;16.23;;;;;;;;;;4936686;28;105946;-62
2021/12/03 07:10:35;;;;;;;45.72;14.52;;;;;;;;;;4944300;28;107267;-61
2021/12/03 07:13:02;;;;;;;50.83;15.30;;;;;;;;;;4926262;28;106414;-61
2021/12/03 07:15:29;;;;;;;54.28;15.30;;;;;;;;;;4932428;28;106016;-61
2021/12/03 07:17:55;;;;;;;48.88;14.70;;;;;;;;;;4942433;28;107410;-61
2021/12/03 07:20:23;;;;;;;38.20;14.02;;;;;;;;;;4946710;28;106608;-61
2021/12/03 07:22:50;;;;;;;45.78;12.98;;;;;;;;;;4944856;28;106527;-61
2021/12/03 07:25:17;;;;;;;38.25;14.23;;;;;;;;;;4947848;28;107453;-61
2021/12/03 07:27:43;;;;;;;43.58;13.63;;;;;;;;;;4947204;28;107659;-62
2021/12/03 07:30:10;;;;;;;33.97;12.52;;;;;;;;;;4943481;28;106662;-62
2021/12/03 07:32:37;;;;;;;42.97;13.27;;;;;;;;;;4950077;28;106430;-62
2021/12/03 07:35:04;;;;;;;43.53;12.00;;;;;;;;;;4943101;28;107403;-62
2021/12/03 07:37:30;;;;;;;40.22;12.70;;;;;;;;;;4946897;28;107600;-61
2021/12/03 07:40:00;;;;;;;38.00;11.90;;;;;;;;;;4939421;28;109013;-63
2021/12/03 07:42:27;;;;;;;;;;;;;;;;;;4948098;28;108312;-61
2021/12/03 07:44:53;;;;;;;31.35;10.88;;;;;;;;;;4928828;28;134976;-64
2021/12/03 07:47:19;;;;;;;38.13;11.40;;;;;;;;;;4945352;28;106037;-61
2021/12/03 07:49:48;;;;;;;30.33;10.57;;;;;;;;;;4944410;28;107178;-62
2021/12/03 07:52:16;;;;;;;37.00;10.75;;;;;;;;;;4935055;28;107437;-63
2021/12/03 07:54:42;;;;;;;34.00;9.82;;;;;;;;;;4948835;28;106743;-62
2021/12/03 07:57:08;;;;;;;29.60;9.90;;;;;;;;;;4948333;28;106775;-62
2021/12/03 07:59:35;;;;;;;35.63;10.35;;;;;;;;;;4946639;28;106530;-62
2021/12/03 08:02:02;;;;;;;34.47;10.48;;;;;;;;;;4945423;28;106526;-62
2021/12/03 08:04:28;;;;;;;27.48;9.25;;;;;;;;;;4943752;28;106337;-64
2021/12/03 08:06:55;;;;;;;32.28;9.73;;;;;;;;;;4940402;28;106134;-63
2021/12/03 08:09:22;;;;;;;31.88;9.25;;;;;;;;;;4946881;28;106165;-62
2021/12/03 08:11:49;;;;;;;28.98;9.23;;;;;;;;;;4943709;28;107557;-62
2021/12/03 08:14:15;;;;;;;31.80;9.57;;;;;;;;;;4943739;28;106343;-62
2021/12/03 08:16:43;;;;;;;24.20;8.27;;;;;;;;;;4947191;28;106820;-62
2021/12/03 08:19:09;;;;;;;27.58;8.57;;;;;;;;;;4945869;28;106077;-64
2021/12/03 08:21:36;;;;;;;23.48;7.90;;;;;;;;;;4945016;28;106703;-62
2021/12/03 08:24:02;;;;;;;23.40;7.80;;;;;;;;;;4940462;28;108841;-62
2021/12/03 08:26:29;;;;;;;28.17;8.57;;;;;;;;;;4941264;28;106373;-62
2021/12/03 08:28:55;;;;;;;24.15;7.90;;;;;;;;;;4941706;28;106710;-62
2021/12/03 08:31:22;;;;;;;21.73;7.88;;;;;;;;;;4943294;28;106345;-62
2021/12/03 08:33:48;;;;;;;24.95;7.32;;;;;;;;;;4943031;28;105837;-63
2021/12/03 08:36:15;;;;;;;26.27;8.35;;;;;;;;;;4944484;28;107694;-62
2021/12/03 08:38:41;;;;;;;27.08;7.35;;;;;;;;;;4945090;28;106392;-63
2021/12/03 08:41:12;;;;;;;25.27;7.05;;;;;;;;;;4932477;28;106191;-63
2021/12/03 08:43:38;;;;;;;30.30;7.90;;;;;;;;;;4941301;28;107057;-63
2021/12/03 08:46:10;;;;;;;35.30;7.53;;;;;;;;;;4939632;28;107022;-62
2021/12/03 08:48:39;;;;;;;29.30;8.25;;;;;;;;;;4944827;28;106893;-62
2021/12/03 08:51:21;;;;;;;36.90;8.27;;;;;;;;;;4944453;28;107389;-62
2021/12/03 08:56:33;;;;;;;32.75;8.07;;;;;;;;;;4938373;28;106847;-62
2021/12/03 08:58:59;;;;;;;43.55;9.32;;;;;;;;;;4939313;28;107805;-62
2021/12/03 09:01:25;;;;;;;34.58;7.70;;;;;;;;;;4928815;28;106632;-62
2021/12/03 09:03:53;;;;;;;31.33;7.60;;;;;;;;;;4945662;28;106470;-62
2021/12/03 09:06:20;;;;;;;35.88;7.20;;;;;;;;;;4941351;28;107247;-62
2021/12/03 09:08:46;;;;;;;41.58;7.72;;;;;;;;;;4943248;28;106855;-62
2021/12/03 09:11:13;;;;;;;28.52;7.00;;;;;;;;;;4944535;28;107210;-62
2021/12/03 09:13:40;;;;;;;32.95;7.28;;;;;;;;;;4927066;28;106094;-62
2021/12/03 09:16:13;;;;;;;29.55;6.95;;;;;;;;;;4940630;28;107716;-62
2021/12/03 09:18:41;;;;;;;26.80;4.97;;;;;;;;;;4940834;28;106298;-62
2021/12/03 09:21:26;;;;;;;21.23;5.50;;;;;;;;;;4942760;28;107289;-62
2021/12/03 09:26:26;;;;;;;19.40;5.10;;;;;;;;;;4937405;28;107195;-65
2021/12/03 09:29:00;;;;;;;17.02;5.28;;;;;;;;;;4941476;28;107250;-63
2021/12/03 09:31:27;;;;;;;23.30;6.10;;;;;;;;;;4942549;28;106880;-63
2021/12/03 09:33:56;;;;;;;19.42;5.60;;;;;;;;;;4934247;28;106636;-63
2021/12/03 09:36:23;;;;;;;16.70;5.05;;;;;;;;;;4938140;28;106520;-63
2021/12/03 09:38:50;;;;;;;15.90;4.30;;;;;;;;;;4932860;28;107553;-63
2021/12/03 09:41:18;;;;;;;20.30;4.50;;;;;;;;;;4941567;28;107905;-62
2021/12/03 09:43:46;;;;;;;19.15;4.88;;;;;;;;;;4943296;28;106765;-63
2021/12/03 09:46:18;;;;;;;17.38;4.47;;;;;;;;;;4939157;28;107910;-63
2021/12/03 09:51:12;;;;;;;20.58;4.30;;;;;;;;;;4945742;28;107067;-65
2021/12/03 09:56:17;;;;;;;13.15;4.18;;;;;;;;;;4938728;28;108096;-63
2021/12/03 10:01:26;;;;;;;11.98;3.53;;;;;;;;;;4939786;28;106303;-63
2021/12/03 10:10:03;;;;;;;11.48;3.13;;;;;;;;;;4939805;28;136747;-63
2021/12/03 10:12:16;;;;;;;18.92;4.40;;;;;;;;;;4939724;28;108055;-62
2021/12/03 10:19:50;;;;;;;20.75;4.03;;;;;;;;;;4936033;28;107636;-62
2021/12/03 10:22:30;;;;;;;12.30;3.42;;;;;;;;;;4937871;28;105775;-62
2021/12/03 10:25:17;;;;;;;19.13;3.97;;;;;;;;;;4933260;28;106533;-63
2021/12/03 10:41:47;;;;;;;25.85;3.83;;;;;;;;;;4943879;28;107378;-63
2021/12/03 10:44:29;;;;;;;21.48;4.75;;;;;;;;;;4943572;28;107549;-64
2021/12/03 10:47:06;;;;;;;16.38;3.90;;;;;;;;;;4938886;28;107264;-64
2021/12/03 10:50:02;;;;;;;19.85;4.50;;;;;;;;;;4937517;28;106168;-62
2021/12/03 10:52:37;;;;;;;19.58;4.15;;;;;;;;;;4937002;28;107142;-62
2021/12/03 11:01:29;;;;;;;17.35;4.68;;;;;;;;;;4937426;28;107545;-63
2021/12/03 11:17:49;;;;;;;11.40;4.10;;;;;;;;;;4941883;28;107778;-64
2021/12/03 11:34:45;;;;;;;20.25;4.38;;;;;;;;;;4931880;28;107302;-63
2021/12/03 12:15:48;;;;;;;18.02;5.20;;;;;;;;;;4941035;28;106631;-64
2021/12/03 12:18:37;;;;;;;17.35;4.55;;;;;;;;;;4940694;28;106588;-66
2021/12/03 12:35:52;;;;;;;13.23;3.80;;;;;;;;;;4940168;28;107969;-66
2021/12/03 12:58:13;;;;;;;8.53;4.10;;;;;;;;;;4948473;28;106453;-62
2021/12/03 13:06:58;;;;;;;11.77;3.40;;;;;;;;;;4937718;28;107229;-61
2021/12/03 13:17:46;;;;;;;9.20;3.58;;;;;;;;;;4928551;28;106980;-61
2021/12/03 13:20:27;;;;;;;11.23;3.80;;;;;;;;;;4946127;28;107561;-62
2021/12/03 13:26:16;;;;;;;11.77;3.55;;;;;;;;;;4937093;28;106225;-61
2021/12/03 13:40:08;;;;;;;11.25;4.28;;;;;;;;;;4946379;28;106933;-62
2021/12/03 13:59:41;;;;;;;9.23;5.07;;;;;;;;;;4943957;28;106469;-62
2021/12/03 14:10:25;;;;;;;11.23;5.28;;;;;;;;;;4933348;28;106920;-63
2021/12/03 14:14:16;;;;;;;11.07;4.80;;;;;;;;;;4940581;28;107097;-64
2021/12/03 14:35:49;;;;;;;7.95;3.97;;;;;;;;;;4948785;28;107352;-64
2021/12/03 14:38:08;;;;;;;11.25;5.03;;;;;;;;;;4939926;28;106406;-64
2021/12/03 14:43:12;;;;;;;14.23;5.50;;;;;;;;;;4940732;28;106766;-64
2021/12/03 14:56:18;;;;;;;12.63;6.53;;;;;;;;;;4933953;28;107017;-64
2021/12/03 15:04:03;;;;;;;14.55;7.97;;;;;;;;;;4922160;28;106378;-64
2021/12/03 15:14:46;;;;;;;16.58;9.52;;;;;;;;;;4941963;28;107976;-64
2021/12/03 15:25:29;;;;;;;17.17;10.07;;;;;;;;;;4939048;28;106341;-64
2021/12/03 15:32:55;;;;;;;16.77;10.02;;;;;;;;;;4945621;28;106601;-63
2021/12/03 15:38:21;;;;;;;18.17;9.90;;;;;;;;;;4938539;28;107259;-65
2021/12/03 15:51:56;;;;;;;22.42;10.70;;;;;;;;;;4890427;28;110120;-62
2021/12/03 16:10:25;;;;;;;16.70;10.35;;;;;;;;;;4945534;28;107001;-63
2021/12/03 16:26:31;;;;;;;23.15;12.35;;;;;;;;;;4938388;28;106716;-63
2021/12/03 16:48:38;;;;;;;18.05;10.90;;;;;;;;;;4942852;28;105826;-62
2021/12/03 16:53:27;;;;;;;17.38;11.85;;;;;;;;;;4941047;28;105924;-64
2021/12/03 16:56:22;;;;;;;17.88;10.05;;;;;;;;;;4944212;28;107788;-63
2021/12/03 16:58:48;;;;;;;19.55;12.20;;;;;;;;;;4936981;28;107320;-65
2021/12/03 17:01:23;;;;;;;16.05;10.10;;;;;;;;;;4944981;28;107936;-63
2021/12/03 17:07:20;;;;;;;20.05;12.38;;;;;;;;;;4939091;28;106527;-63
2021/12/03 17:09:18;;;;;;;19.60;12.65;;;;;;;;;;4939191;28;107039;-63
2021/12/03 17:14:48;;;;;;;21.85;13.13;;;;;;;;;;4941436;28;106941;-64
2021/12/03 17:18:19;;;;;;;20.67;12.75;;;;;;;;;;4945256;28;107478;-64
2021/12/03 17:47:34;;;;;;;24.00;12.75;;;;;;;;;;4941874;28;107740;-63
2021/12/03 18:00:54;;;;;;;19.73;12.48;;;;;;;;;;4938489;28;106584;-64
2021/12/03 18:09:14;;;;;;;19.52;12.65;;;;;;;;;;4939561;28;108864;-63
2021/12/03 18:12:02;;;;;;;22.98;13.18;;;;;;;;;;4943351;28;107440;-62
2021/12/03 18:57:59;;;;;;;18.65;11.75;;;;;;;;;;4944225;28;107823;-62
2021/12/03 19:00:28;;;;;;;21.10;13.05;;;;;;;;;;4940065;28;106267;-61
2021/12/03 19:02:57;;;;;;;22.63;13.48;;;;;;;;;;4942345;28;105959;-62
2021/12/03 19:08:02;;;;;;;21.63;12.85;;;;;;;;;;4943168;28;107524;-61
2021/12/03 19:10:31;;;;;;;25.15;14.35;;;;;;;;;;4946742;28;106867;-62
2021/12/03 19:13:02;;;;;;;29.25;16.17;;;;;;;;;;4944941;28;107259;-62
2021/12/03 19:15:29;;;;;;;25.73;13.38;;;;;;;;;;4941859;28;106360;-62
2021/12/03 19:18:00;;;;;;;27.35;15.80;;;;;;;;;;4938759;28;109091;-62
2021/12/03 19:20:47;;;;;;;30.05;15.93;;;;;;;;;;4941999;28;109197;-62
2021/12/03 19:23:14;;;;;;;31.75;17.35;;;;;;;;;;4944848;28;106344;-62
2021/12/03 19:25:40;;;;;;;29.88;16.92;;;;;;;;;;4941421;28;107127;-62
2021/12/03 19:28:06;;;;;;;32.75;16.98;;;;;;;;;;4938729;28;107435;-62
2021/12/03 19:30:33;;;;;;;32.20;16.10;;;;;;;;;;4943482;28;106476;-61
2021/12/03 19:32:59;;;;;;;31.73;18.05;;;;;;;;;;4940790;28;107491;-61
2021/12/03 19:35:26;;;;;;;37.83;18.58;;;;;;;;;;4944741;28;107827;-62
2021/12/03 19:37:54;;;;;;;33.47;18.13;;;;;;;;;;4943444;28;106435;-62
2021/12/03 19:40:22;;;;;;;33.35;16.80;;;;;;;;;;4944074;28;107312;-62
2021/12/03 19:42:54;;;;;;;32.45;17.70;;;;;;;;;;4938033;28;106182;-62
2021/12/03 19:45:23;;;;;;;28.50;14.82;;;;;;;;;;4944642;28;106232;-62
2021/12/03 19:48:05;;;;;;;34.90;17.75;;;;;;;;;;4944049;28;106391;-62
2021/12/03 19:55:37;;;;;;;31.20;16.77;;;;;;;;;;4942554;28;107932;-62
2021/12/03 19:58:04;;;;;;;30.02;16.10;;;;;;;;;;4948268;28;106225;-62
2021/12/03 20:00:30;;;;;;;30.48;16.45;;;;;;;;;;4944003;28;110019;-62
2021/12/03 20:02:57;;;;;;;34.10;16.48;;;;;;;;;;4947231;28;106346;-63
2021/12/03 20:05:23;;;;;;;31.67;16.40;;;;;;;;;;4945250;28;107170;-63
2021/12/03 20:07:51;;;;;;;31.48;16.80;;;;;;;;;;4946981;28;106621;-62
2021/12/03 20:10:20;;;;;;;33.83;17.75;;;;;;;;;;4942267;28;106422;-62
2021/12/03 20:12:48;;;;;;;31.67;16.87;;;;;;;;;;4945443;28;106817;-62
2021/12/03 20:15:29;;;;;;;32.15;16.95;;;;;;;;;;4939827;28;107707;-62
2021/12/03 20:17:57;;;;;;;27.42;14.30;;;;;;;;;;4945230;28;107174;-62
2021/12/03 20:20:25;;;;;;;28.23;16.23;;;;;;;;;;4939628;28;106465;-63
2021/12/03 20:25:56;;;;;;;27.83;15.95;;;;;;;;;;4943191;28;108006;-61
2021/12/03 20:28:34;;;;;;;26.77;14.98;;;;;;;;;;4936293;28;107497;-62
2021/12/03 20:31:05;;;;;;;26.60;15.23;;;;;;;;;;4939284;28;106561;-61
2021/12/03 20:38:57;;;;;;;24.92;14.68;;;;;;;;;;4945769;28;106210;-66
2021/12/03 20:41:36;;;;;;;24.25;14.52;;;;;;;;;;4937413;28;109285;-62
2021/12/03 20:44:13;;;;;;;26.65;14.70;;;;;;;;;;4943468;28;107438;-62
2021/12/03 20:52:09;;;;;;;24.08;13.88;;;;;;;;;;4943211;28;106426;-62
2021/12/03 20:54:44;;;;;;;27.55;13.65;;;;;;;;;;4939937;28;106418;-62
2021/12/03 20:57:19;;;;;;;24.35;14.68;;;;;;;;;;4944138;28;107179;-63
2021/12/03 21:10:56;;;;;;;22.30;13.65;;;;;;;;;;4914084;28;107993;-62
2021/12/03 21:13:32;;;;;;;23.17;14.00;;;;;;;;;;4933724;28;106838;-64
2021/12/03 21:16:14;;;;;;;23.48;14.93;;;;;;;;;;4937673;28;106682;-62
2021/12/03 21:18:47;;;;;;;25.55;14.98;;;;;;;;;;4933557;28;107916;-62
2021/12/03 21:21:26;;;;;;;25.67;14.60;;;;;;;;;;4941738;28;107203;-62
2021/12/03 21:23:53;;;;;;;25.83;14.55;;;;;;;;;;4938998;28;107370;-65
2021/12/03 21:26:22;;;;;;;22.08;13.57;;;;;;;;;;4938145;28;107418;-62
2021/12/03 21:39:24;;;;;;;24.67;14.73;;;;;;;;;;4945899;28;107734;-62
2021/12/03 21:41:51;;;;;;;24.95;13.85;;;;;;;;;;4940987;28;107288;-62
2021/12/03 21:44:19;;;;;;;22.85;13.60;;;;;;;;;;4941063;28;107553;-62
2021/12/03 21:46:46;;;;;;;22.10;13.20;;;;;;;;;;4941533;28;107383;-62
2021/12/03 21:49:12;;;;;;;22.83;13.98;;;;;;;;;;4942552;28;107376;-62
2021/12/03 21:51:40;;;;;;;23.15;13.52;;;;;;;;;;4944100;28;106690;-63
2021/12/03 21:54:08;;;;;;;27.88;12.85;;;;;;;;;;4940192;28;106729;-64
2021/12/03 21:56:35;;;;;;;25.38;12.43;;;;;;;;;;4944052;28;106543;-63
2021/12/03 21:59:02;;;;;;;22.25;12.95;;;;;;;;;;4941888;28;107630;-61
2021/12/03 22:01:30;;;;;;;23.02;12.93;;;;;;;;;;4927864;28;107359;-64